sensor_id;sensor_type;location;lat;lon;timestamp;temperature;humidity
3069;DHT22;1545;51.728;8.796;2023-05-10T00:01:02;15.30;98.80
3069;DHT22;1545;51.728;8.796;2023-05-10T00:03:28;15.30;98.80
3069;DHT22;1545;51.728;8.796;2023-05-10T00:05:53;15.30;98.80
3069;DHT22;1545;51.728;8.796;2023-05-10T00:08:19;15.30;98.80
3069;DHT22;1545;51.728;8.796;2023-05-10T00:10:44;15.10;98.80
3069;DHT22;1545;51.728;8.796;2023-05-10T00:13:10;15.10;98.80
3069;DHT22;1545;51.728;8.796;2023-05-10T00:15:35;15.10;98.80
3069;DHT22;1545;51.728;8.796;2023-05-10T00:18:01;15.10;98.80
3069;DHT22;1545;51.728;8.796;2023-05-10T00:20:26;15.20;98.80
3069;DHT22;1545;51.728;8.796;2023-05-10T00:22:52;15.10;98.80
3069;DHT22;1545;51.728;8.796;2023-05-10T00:25:17;15.10;98.80
3069;DHT22;1545;51.728;8.796;2023-05-10T00:27:43;15.10;98.80
3069;DHT22;1545;51.728;8.796;2023-05-10T00:30:09;15.00;98.80
3069;DHT22;1545;51.728;8.796;2023-05-10T00:32:35;15.00;98.80
3069;DHT22;1545;51.728;8.796;2023-05-10T00:35:00;14.90;98.80
3069;DHT22;1545;51.728;8.796;2023-05-10T00:37:26;14.90;98.80
3069;DHT22;1545;51.728;8.796;2023-05-10T00:39:51;14.90;98.80
3069;DHT22;1545;51.728;8.796;2023-05-10T00:42:17;15.00;98.80
3069;DHT22;1545;51.728;8.796;2023-05-10T00:44:42;14.90;98.80
3069;DHT22;1545;51.728;8.796;2023-05-10T00:47:08;14.90;98.80
3069;DHT22;1545;51.728;8.796;2023-05-10T00:49:35;14.90;98.80
3069;DHT22;1545;51.728;8.796;2023-05-10T00:52:01;14.80;98.80
3069;DHT22;1545;51.728;8.796;2023-05-10T00:54:27;14.80;98.80
3069;DHT22;1545;51.728;8.796;2023-05-10T00:56:53;14.80;98.80
3069;DHT22;1545;51.728;8.796;2023-05-10T00:59:18;14.80;98.80
3069;DHT22;1545;51.728;8.796;2023-05-10T01:01:47;14.70;98.80
3069;DHT22;1545;51.728;8.796;2023-05-10T01:04:13;14.70;98.80
3069;DHT22;1545;51.728;8.796;2023-05-10T01:06:40;14.70;98.80
3069;DHT22;1545;51.728;8.796;2023-05-10T01:09:06;14.60;98.80
3069;DHT22;1545;51.728;8.796;2023-05-10T01:11:34;14.50;98.80
3069;DHT22;1545;51.728;8.796;2023-05-10T01:14:00;14.50;98.80
3069;DHT22;1545;51.728;8.796;2023-05-10T01:16:27;14.40;98.80
3069;DHT22;1545;51.728;8.796;2023-05-10T01:18:55;14.40;98.80
3069;DHT22;1545;51.728;8.796;2023-05-10T01:30:28;14.40;98.80
3069;DHT22;1545;51.728;8.796;2023-05-10T01:36:03;14.40;98.80
3069;DHT22;1545;51.728;8.796;2023-05-10T01:38:42;14.40;98.80
3069;DHT22;1545;51.728;8.796;2023-05-10T01:41:14;14.40;98.80
3069;DHT22;1545;51.728;8.796;2023-05-10T01:43:57;14.40;98.80
3069;DHT22;1545;51.728;8.796;2023-05-10T01:46:37;14.30;98.80
3069;DHT22;1545;51.728;8.796;2023-05-10T01:49:08;14.30;98.80
3069;DHT22;1545;51.728;8.796;2023-05-10T01:51:40;14.30;98.80
3069;DHT22;1545;51.728;8.796;2023-05-10T01:54:07;14.20;98.80
3069;DHT22;1545;51.728;8.796;2023-05-10T01:56:35;14.20;98.80
3069;DHT22;1545;51.728;8.796;2023-05-10T01:59:05;14.30;98.80
3069;DHT22;1545;51.728;8.796;2023-05-10T02:01:33;14.30;98.80
3069;DHT22;1545;51.728;8.796;2023-05-10T02:03:59;14.30;98.80
3069;DHT22;1545;51.728;8.796;2023-05-10T02:06:27;14.20;98.80
3069;DHT22;1545;51.728;8.796;2023-05-10T02:08:53;14.10;98.80
3069;DHT22;1545;51.728;8.796;2023-05-10T02:11:20;13.90;98.80
3069;DHT22;1545;51.728;8.796;2023-05-10T02:13:49;13.90;98.80
3069;DHT22;1545;51.728;8.796;2023-05-10T02:16:16;13.80;98.80
3069;DHT22;1545;51.728;8.796;2023-05-10T02:18:43;13.70;98.80
3069;DHT22;1545;51.728;8.796;2023-05-10T02:21:10;13.70;98.80
3069;DHT22;1545;51.728;8.796;2023-05-10T02:23:37;13.60;98.80
3069;DHT22;1545;51.728;8.796;2023-05-10T02:26:03;13.60;98.80
3069;DHT22;1545;51.728;8.796;2023-05-10T02:28:32;13.60;98.80
3069;DHT22;1545;51.728;8.796;2023-05-10T02:30:58;13.50;98.80
3069;DHT22;1545;51.728;8.796;2023-05-10T02:33:24;13.50;98.80
3069;DHT22;1545;51.728;8.796;2023-05-10T02:35:51;13.50;98.80
3069;DHT22;1545;51.728;8.796;2023-05-10T02:38:19;13.50;98.80
3069;DHT22;1545;51.728;8.796;2023-05-10T02:40:46;13.50;98.80
3069;DHT22;1545;51.728;8.796;2023-05-10T02:43:14;13.50;98.80
3069;DHT22;1545;51.728;8.796;2023-05-10T02:45:42;13.50;98.80
3069;DHT22;1545;51.728;8.796;2023-05-10T02:48:08;13.50;98.80
3069;DHT22;1545;51.728;8.796;2023-05-10T02:50:34;13.50;98.80
3069;DHT22;1545;51.728;8.796;2023-05-10T02:53:02;13.50;98.80
3069;DHT22;1545;51.728;8.796;2023-05-10T02:55:34;13.50;98.80
3069;DHT22;1545;51.728;8.796;2023-05-10T02:58:01;13.50;98.80
3069;DHT22;1545;51.728;8.796;2023-05-10T03:00:27;13.50;98.80
3069;DHT22;1545;51.728;8.796;2023-05-10T03:02:52;13.60;98.80
3069;DHT22;1545;51.728;8.796;2023-05-10T03:05:19;13.70;98.80
3069;DHT22;1545;51.728;8.796;2023-05-10T03:07:45;13.70;98.80
3069;DHT22;1545;51.728;8.796;2023-05-10T03:10:11;13.70;98.80
3069;DHT22;1545;51.728;8.796;2023-05-10T03:12:58;13.60;98.80
3069;DHT22;1545;51.728;8.796;2023-05-10T03:17:59;13.60;98.80
3069;DHT22;1545;51.728;8.796;2023-05-10T03:20:38;13.60;98.80
3069;DHT22;1545;51.728;8.796;2023-05-10T03:23:21;13.60;98.80
3069;DHT22;1545;51.728;8.796;2023-05-10T03:25:48;13.60;98.80
3069;DHT22;1545;51.728;8.796;2023-05-10T03:28:15;13.60;98.80
3069;DHT22;1545;51.728;8.796;2023-05-10T03:30:43;13.60;98.80
3069;DHT22;1545;51.728;8.796;2023-05-10T03:33:08;13.60;98.80
3069;DHT22;1545;51.728;8.796;2023-05-10T03:35:34;13.60;98.80
3069;DHT22;1545;51.728;8.796;2023-05-10T03:38:00;13.50;98.80
3069;DHT22;1545;51.728;8.796;2023-05-10T03:40:26;13.50;98.80
3069;DHT22;1545;51.728;8.796;2023-05-10T03:42:54;13.50;98.80
3069;DHT22;1545;51.728;8.796;2023-05-10T03:45:20;13.50;98.80
3069;DHT22;1545;51.728;8.796;2023-05-10T03:47:46;13.50;98.80
3069;DHT22;1545;51.728;8.796;2023-05-10T03:50:11;13.50;98.80
3069;DHT22;1545;51.728;8.796;2023-05-10T03:52:37;13.40;98.80
3069;DHT22;1545;51.728;8.796;2023-05-10T03:55:05;13.40;98.80
3069;DHT22;1545;51.728;8.796;2023-05-10T03:57:30;13.40;98.80
3069;DHT22;1545;51.728;8.796;2023-05-10T03:59:56;13.40;98.80
3069;DHT22;1545;51.728;8.796;2023-05-10T04:02:21;13.40;98.80
3069;DHT22;1545;51.728;8.796;2023-05-10T04:04:47;13.40;98.80
3069;DHT22;1545;51.728;8.796;2023-05-10T04:07:13;13.40;98.80
3069;DHT22;1545;51.728;8.796;2023-05-10T04:09:39;13.30;98.80
3069;DHT22;1545;51.728;8.796;2023-05-10T04:12:05;13.40;98.80
3069;DHT22;1545;51.728;8.796;2023-05-10T04:14:31;13.30;98.80
3069;DHT22;1545;51.728;8.796;2023-05-10T04:16:57;13.30;98.80
3069;DHT22;1545;51.728;8.796;2023-05-10T04:19:22;13.40;98.80
3069;DHT22;1545;51.728;8.796;2023-05-10T04:21:48;13.30;98.80
3069;DHT22;1545;51.728;8.796;2023-05-10T04:24:13;13.30;98.80
3069;DHT22;1545;51.728;8.796;2023-05-10T04:26:39;13.30;98.80
3069;DHT22;1545;51.728;8.796;2023-05-10T04:29:04;13.30;98.80
3069;DHT22;1545;51.728;8.796;2023-05-10T04:31:30;13.30;98.80
3069;DHT22;1545;51.728;8.796;2023-05-10T04:33:55;13.30;98.80
3069;DHT22;1545;51.728;8.796;2023-05-10T04:36:21;13.30;98.80
3069;DHT22;1545;51.728;8.796;2023-05-10T04:38:46;13.30;98.80
3069;DHT22;1545;51.728;8.796;2023-05-10T04:41:12;13.20;98.80
3069;DHT22;1545;51.728;8.796;2023-05-10T04:43:38;13.20;98.80
3069;DHT22;1545;51.728;8.796;2023-05-10T04:46:04;13.30;98.80
3069;DHT22;1545;51.728;8.796;2023-05-10T04:48:30;13.20;98.80
3069;DHT22;1545;51.728;8.796;2023-05-10T04:50:55;13.20;98.80
3069;DHT22;1545;51.728;8.796;2023-05-10T04:53:21;13.20;98.80
3069;DHT22;1545;51.728;8.796;2023-05-10T04:55:47;13.20;98.80
3069;DHT22;1545;51.728;8.796;2023-05-10T04:58:13;13.10;98.80
3069;DHT22;1545;51.728;8.796;2023-05-10T05:00:38;13.10;98.80
3069;DHT22;1545;51.728;8.796;2023-05-10T05:03:04;13.20;98.80
3069;DHT22;1545;51.728;8.796;2023-05-10T05:05:30;13.10;98.80
3069;DHT22;1545;51.728;8.796;2023-05-10T05:07:56;13.10;98.80
3069;DHT22;1545;51.728;8.796;2023-05-10T05:10:21;13.10;98.80
3069;DHT22;1545;51.728;8.796;2023-05-10T05:12:47;13.10;98.80
3069;DHT22;1545;51.728;8.796;2023-05-10T05:15:12;13.10;98.80
3069;DHT22;1545;51.728;8.796;2023-05-10T05:17:38;13.00;98.80
3069;DHT22;1545;51.728;8.796;2023-05-10T05:20:03;13.10;98.80
3069;DHT22;1545;51.728;8.796;2023-05-10T05:22:29;13.10;98.80
3069;DHT22;1545;51.728;8.796;2023-05-10T05:24:56;13.20;98.80
3069;DHT22;1545;51.728;8.796;2023-05-10T05:27:22;13.30;98.80
3069;DHT22;1545;51.728;8.796;2023-05-10T05:29:50;13.30;98.80
3069;DHT22;1545;51.728;8.796;2023-05-10T05:32:16;13.20;98.80
3069;DHT22;1545;51.728;8.796;2023-05-10T05:34:41;13.20;98.80
3069;DHT22;1545;51.728;8.796;2023-05-10T05:37:15;13.20;98.80
3069;DHT22;1545;51.728;8.796;2023-05-10T05:39:42;13.30;98.80
3069;DHT22;1545;51.728;8.796;2023-05-10T05:42:09;13.30;98.80
3069;DHT22;1545;51.728;8.796;2023-05-10T05:44:34;13.30;98.80
3069;DHT22;1545;51.728;8.796;2023-05-10T05:47:00;13.40;98.80
3069;DHT22;1545;51.728;8.796;2023-05-10T05:49:25;13.30;98.80
3069;DHT22;1545;51.728;8.796;2023-05-10T05:51:51;13.30;98.80
3069;DHT22;1545;51.728;8.796;2023-05-10T05:54:16;13.30;98.80
3069;DHT22;1545;51.728;8.796;2023-05-10T05:56:42;13.30;98.80
3069;DHT22;1545;51.728;8.796;2023-05-10T05:59:07;13.30;98.80
3069;DHT22;1545;51.728;8.796;2023-05-10T06:01:33;13.30;98.80
3069;DHT22;1545;51.728;8.796;2023-05-10T06:03:59;13.30;98.80
3069;DHT22;1545;51.728;8.796;2023-05-10T06:06:24;13.30;98.80
3069;DHT22;1545;51.728;8.796;2023-05-10T06:08:49;13.30;98.80
3069;DHT22;1545;51.728;8.796;2023-05-10T06:11:15;13.30;98.80
3069;DHT22;1545;51.728;8.796;2023-05-10T06:13:40;13.30;98.80
3069;DHT22;1545;51.728;8.796;2023-05-10T06:16:07;13.30;98.80
3069;DHT22;1545;51.728;8.796;2023-05-10T06:18:33;13.20;98.80
3069;DHT22;1545;51.728;8.796;2023-05-10T06:20:59;13.20;98.80
3069;DHT22;1545;51.728;8.796;2023-05-10T06:23:24;13.20;98.80
3069;DHT22;1545;51.728;8.796;2023-05-10T06:25:51;13.20;98.80
3069;DHT22;1545;51.728;8.796;2023-05-10T06:28:16;13.20;98.80
3069;DHT22;1545;51.728;8.796;2023-05-10T06:30:42;13.30;98.80
3069;DHT22;1545;51.728;8.796;2023-05-10T06:33:07;13.30;98.80
3069;DHT22;1545;51.728;8.796;2023-05-10T06:35:33;13.30;98.80
3069;DHT22;1545;51.728;8.796;2023-05-10T06:37:59;13.30;98.80
3069;DHT22;1545;51.728;8.796;2023-05-10T06:40:24;13.40;98.80
3069;DHT22;1545;51.728;8.796;2023-05-10T06:42:50;13.60;98.80
3069;DHT22;1545;51.728;8.796;2023-05-10T06:45:16;13.70;98.80
3069;DHT22;1545;51.728;8.796;2023-05-10T06:47:41;13.80;98.80
3069;DHT22;1545;51.728;8.796;2023-05-10T06:50:10;14.10;98.80
3069;DHT22;1545;51.728;8.796;2023-05-10T06:52:39;14.20;98.80
3069;DHT22;1545;51.728;8.796;2023-05-10T06:55:05;14.30;98.80
3069;DHT22;1545;51.728;8.796;2023-05-10T06:57:31;14.30;98.80
3069;DHT22;1545;51.728;8.796;2023-05-10T07:00:00;14.40;98.80
3069;DHT22;1545;51.728;8.796;2023-05-10T07:02:26;14.50;98.70
3069;DHT22;1545;51.728;8.796;2023-05-10T07:04:51;14.60;98.30
3069;DHT22;1545;51.728;8.796;2023-05-10T07:07:18;14.70;98.20
3069;DHT22;1545;51.728;8.796;2023-05-10T07:09:43;14.80;98.00
3069;DHT22;1545;51.728;8.796;2023-05-10T07:12:09;14.90;97.10
3069;DHT22;1545;51.728;8.796;2023-05-10T07:14:35;15.00;96.80
3069;DHT22;1545;51.728;8.796;2023-05-10T07:17:00;14.90;96.60
3069;DHT22;1545;51.728;8.796;2023-05-10T07:19:26;14.80;96.50
3069;DHT22;1545;51.728;8.796;2023-05-10T07:21:51;14.80;96.60
3069;DHT22;1545;51.728;8.796;2023-05-10T07:24:17;14.70;96.70
3069;DHT22;1545;51.728;8.796;2023-05-10T07:26:42;14.60;96.80
3069;DHT22;1545;51.728;8.796;2023-05-10T07:29:08;14.60;97.50
3069;DHT22;1545;51.728;8.796;2023-05-10T07:31:33;14.70;97.70
3069;DHT22;1545;51.728;8.796;2023-05-10T07:33:59;14.80;97.70
3069;DHT22;1545;51.728;8.796;2023-05-10T07:36:24;14.90;97.40
3069;DHT22;1545;51.728;8.796;2023-05-10T07:38:51;15.00;96.60
3069;DHT22;1545;51.728;8.796;2023-05-10T07:41:16;15.30;96.10
3069;DHT22;1545;51.728;8.796;2023-05-10T07:43:42;15.50;95.10
3069;DHT22;1545;51.728;8.796;2023-05-10T07:46:07;15.80;93.30
3069;DHT22;1545;51.728;8.796;2023-05-10T07:48:36;15.90;91.90
3069;DHT22;1545;51.728;8.796;2023-05-10T07:51:01;16.00;90.90
3069;DHT22;1545;51.728;8.796;2023-05-10T07:53:27;16.10;91.00
3069;DHT22;1545;51.728;8.796;2023-05-10T07:55:54;16.20;90.60
3069;DHT22;1545;51.728;8.796;2023-05-10T07:58:22;16.50;90.20
3069;DHT22;1545;51.728;8.796;2023-05-10T08:00:47;16.60;88.70
3069;DHT22;1545;51.728;8.796;2023-05-10T08:03:14;16.70;88.90
3069;DHT22;1545;51.728;8.796;2023-05-10T08:05:39;17.00;88.70
3069;DHT22;1545;51.728;8.796;2023-05-10T08:08:05;17.30;87.60
3069;DHT22;1545;51.728;8.796;2023-05-10T08:10:31;17.70;86.70
3069;DHT22;1545;51.728;8.796;2023-05-10T08:12:57;18.10;86.00
3069;DHT22;1545;51.728;8.796;2023-05-10T08:15:24;18.50;84.50
3069;DHT22;1545;51.728;8.796;2023-05-10T08:17:50;18.60;83.30
3069;DHT22;1545;51.728;8.796;2023-05-10T08:20:16;18.50;83.80
3069;DHT22;1545;51.728;8.796;2023-05-10T08:22:47;18.40;84.50
3069;DHT22;1545;51.728;8.796;2023-05-10T08:25:12;17.80;86.20
3069;DHT22;1545;51.728;8.796;2023-05-10T08:27:38;17.30;88.20
3069;DHT22;1545;51.728;8.796;2023-05-10T08:30:03;16.80;89.60
3069;DHT22;1545;51.728;8.796;2023-05-10T08:32:29;16.40;91.30
3069;DHT22;1545;51.728;8.796;2023-05-10T08:34:55;16.20;92.20
3069;DHT22;1545;51.728;8.796;2023-05-10T08:37:23;16.00;93.50
3069;DHT22;1545;51.728;8.796;2023-05-10T08:39:49;15.90;93.50
3069;DHT22;1545;51.728;8.796;2023-05-10T08:42:19;15.90;93.90
3069;DHT22;1545;51.728;8.796;2023-05-10T08:44:46;16.00;93.60
3069;DHT22;1545;51.728;8.796;2023-05-10T08:47:15;16.20;93.80
3069;DHT22;1545;51.728;8.796;2023-05-10T08:49:41;16.60;92.90
3069;DHT22;1545;51.728;8.796;2023-05-10T08:52:08;17.00;90.80
3069;DHT22;1545;51.728;8.796;2023-05-10T08:54:36;17.30;90.40
3069;DHT22;1545;51.728;8.796;2023-05-10T08:57:03;17.70;89.20
3069;DHT22;1545;51.728;8.796;2023-05-10T08:59:28;18.00;87.50
3069;DHT22;1545;51.728;8.796;2023-05-10T09:01:57;18.20;86.20
3069;DHT22;1545;51.728;8.796;2023-05-10T09:04:23;17.90;86.70
3069;DHT22;1545;51.728;8.796;2023-05-10T09:06:48;17.60;88.50
3069;DHT22;1545;51.728;8.796;2023-05-10T09:09:14;17.10;89.50
3069;DHT22;1545;51.728;8.796;2023-05-10T09:11:41;16.70;90.50
3069;DHT22;1545;51.728;8.796;2023-05-10T09:14:07;16.60;92.50
3069;DHT22;1545;51.728;8.796;2023-05-10T09:16:34;16.80;93.10
3069;DHT22;1545;51.728;8.796;2023-05-10T09:19:00;17.20;92.00
3069;DHT22;1545;51.728;8.796;2023-05-10T09:21:25;17.60;90.90
3069;DHT22;1545;51.728;8.796;2023-05-10T09:23:51;18.00;89.50
3069;DHT22;1545;51.728;8.796;2023-05-10T09:26:22;18.40;88.20
3069;DHT22;1545;51.728;8.796;2023-05-10T09:28:56;18.50;87.00
3069;DHT22;1545;51.728;8.796;2023-05-10T09:31:22;18.70;85.50
3069;DHT22;1545;51.728;8.796;2023-05-10T09:33:49;19.10;83.80
3069;DHT22;1545;51.728;8.796;2023-05-10T09:36:15;19.50;82.90
3069;DHT22;1545;51.728;8.796;2023-05-10T09:38:49;19.70;82.80
3069;DHT22;1545;51.728;8.796;2023-05-10T09:41:17;19.90;80.40
3069;DHT22;1545;51.728;8.796;2023-05-10T09:43:43;20.00;80.50
3069;DHT22;1545;51.728;8.796;2023-05-10T09:46:09;20.10;80.10
3069;DHT22;1545;51.728;8.796;2023-05-10T09:48:45;20.20;80.10
3069;DHT22;1545;51.728;8.796;2023-05-10T09:51:23;20.10;79.40
3069;DHT22;1545;51.728;8.796;2023-05-10T09:53:52;19.90;81.10
3069;DHT22;1545;51.728;8.796;2023-05-10T09:56:34;19.50;80.90
3069;DHT22;1545;51.728;8.796;2023-05-10T09:59:06;19.30;81.20
3069;DHT22;1545;51.728;8.796;2023-05-10T10:01:32;19.10;81.80
3069;DHT22;1545;51.728;8.796;2023-05-10T10:03:58;19.20;82.30
3069;DHT22;1545;51.728;8.796;2023-05-10T10:06:24;19.60;82.10
3069;DHT22;1545;51.728;8.796;2023-05-10T10:08:54;20.10;80.30
3069;DHT22;1545;51.728;8.796;2023-05-10T10:11:20;20.50;79.10
3069;DHT22;1545;51.728;8.796;2023-05-10T10:13:45;20.80;76.70
3069;DHT22;1545;51.728;8.796;2023-05-10T10:16:11;21.10;77.70
3069;DHT22;1545;51.728;8.796;2023-05-10T10:18:37;21.40;77.50
3069;DHT22;1545;51.728;8.796;2023-05-10T10:21:07;21.40;76.70
3069;DHT22;1545;51.728;8.796;2023-05-10T10:23:34;21.70;76.90
3069;DHT22;1545;51.728;8.796;2023-05-10T10:26:01;21.60;76.20
3069;DHT22;1545;51.728;8.796;2023-05-10T10:28:51;21.40;76.10
3069;DHT22;1545;51.728;8.796;2023-05-10T10:34:36;21.00;76.40
3069;DHT22;1545;51.728;8.796;2023-05-10T10:37:05;20.90;76.40
3069;DHT22;1545;51.728;8.796;2023-05-10T10:39:31;21.20;76.40
3069;DHT22;1545;51.728;8.796;2023-05-10T10:41:58;21.30;75.10
3069;DHT22;1545;51.728;8.796;2023-05-10T10:44:26;21.20;76.10
3069;DHT22;1545;51.728;8.796;2023-05-10T10:57:46;20.00;80.00
3069;DHT22;1545;51.728;8.796;2023-05-10T11:00:28;19.60;80.30
3069;DHT22;1545;51.728;8.796;2023-05-10T11:07:55;19.30;82.00
3069;DHT22;1545;51.728;8.796;2023-05-10T11:10:22;19.60;81.70
3069;DHT22;1545;51.728;8.796;2023-05-10T11:13:05;20.10;79.90
3069;DHT22;1545;51.728;8.796;2023-05-10T11:15:33;20.30;79.10
3069;DHT22;1545;51.728;8.796;2023-05-10T11:17:59;20.60;79.10
3069;DHT22;1545;51.728;8.796;2023-05-10T11:20:28;20.60;78.70
3069;DHT22;1545;51.728;8.796;2023-05-10T11:23:13;20.70;78.90
3069;DHT22;1545;51.728;8.796;2023-05-10T11:25:45;20.70;77.50
3069;DHT22;1545;51.728;8.796;2023-05-10T11:28:12;21.00;76.20
3069;DHT22;1545;51.728;8.796;2023-05-10T11:30:39;21.40;75.40
3069;DHT22;1545;51.728;8.796;2023-05-10T11:33:05;21.40;74.90
3069;DHT22;1545;51.728;8.796;2023-05-10T11:35:37;21.60;75.90
3069;DHT22;1545;51.728;8.796;2023-05-10T11:38:06;21.70;74.70
3069;DHT22;1545;51.728;8.796;2023-05-10T11:40:32;21.50;75.60
3069;DHT22;1545;51.728;8.796;2023-05-10T11:42:58;21.20;77.50
3069;DHT22;1545;51.728;8.796;2023-05-10T11:45:24;20.60;78.90
3069;DHT22;1545;51.728;8.796;2023-05-10T11:47:50;20.10;80.50
3069;DHT22;1545;51.728;8.796;2023-05-10T11:50:17;19.80;81.60
3069;DHT22;1545;51.728;8.796;2023-05-10T11:52:42;19.50;83.40
3069;DHT22;1545;51.728;8.796;2023-05-10T11:55:08;19.30;83.90
3069;DHT22;1545;51.728;8.796;2023-05-10T11:57:34;19.30;84.70
3069;DHT22;1545;51.728;8.796;2023-05-10T12:00:00;19.30;84.10
3069;DHT22;1545;51.728;8.796;2023-05-10T12:02:29;19.30;82.40
3069;DHT22;1545;51.728;8.796;2023-05-10T12:04:55;19.60;81.60
3069;DHT22;1545;51.728;8.796;2023-05-10T12:07:21;20.00;80.60
3069;DHT22;1545;51.728;8.796;2023-05-10T12:10:14;20.10;78.50
3069;DHT22;1545;51.728;8.796;2023-05-10T12:12:44;20.30;80.20
3069;DHT22;1545;51.728;8.796;2023-05-10T12:15:21;20.30;79.50
3069;DHT22;1545;51.728;8.796;2023-05-10T12:17:47;20.40;79.60
3069;DHT22;1545;51.728;8.796;2023-05-10T12:20:17;20.40;78.30
3069;DHT22;1545;51.728;8.796;2023-05-10T12:23:01;20.10;78.70
3069;DHT22;1545;51.728;8.796;2023-05-10T12:25:36;19.80;79.90
3069;DHT22;1545;51.728;8.796;2023-05-10T12:28:09;19.40;80.70
3069;DHT22;1545;51.728;8.796;2023-05-10T12:30:36;19.00;81.90
3069;DHT22;1545;51.728;8.796;2023-05-10T12:33:12;18.80;83.60
3069;DHT22;1545;51.728;8.796;2023-05-10T12:35:52;18.70;84.60
3069;DHT22;1545;51.728;8.796;2023-05-10T12:38:36;18.50;84.30
3069;DHT22;1545;51.728;8.796;2023-05-10T12:41:08;18.20;83.30
3069;DHT22;1545;51.728;8.796;2023-05-10T12:43:35;18.00;84.10
3069;DHT22;1545;51.728;8.796;2023-05-10T12:46:11;17.90;82.90
3069;DHT22;1545;51.728;8.796;2023-05-10T12:48:38;17.90;83.10
3069;DHT22;1545;51.728;8.796;2023-05-10T12:51:05;18.10;84.00
3069;DHT22;1545;51.728;8.796;2023-05-10T12:53:33;18.50;81.40
3069;DHT22;1545;51.728;8.796;2023-05-10T12:55:59;18.80;80.00
3069;DHT22;1545;51.728;8.796;2023-05-10T12:58:24;19.00;79.70
3069;DHT22;1545;51.728;8.796;2023-05-10T13:00:50;19.30;79.60
3069;DHT22;1545;51.728;8.796;2023-05-10T13:03:16;19.70;80.30
3069;DHT22;1545;51.728;8.796;2023-05-10T13:05:42;20.10;79.00
3069;DHT22;1545;51.728;8.796;2023-05-10T13:08:09;20.20;77.20
3069;DHT22;1545;51.728;8.796;2023-05-10T13:10:34;20.40;76.50
3069;DHT22;1545;51.728;8.796;2023-05-10T13:13:00;20.60;77.40
3069;DHT22;1545;51.728;8.796;2023-05-10T13:15:26;20.90;76.60
3069;DHT22;1545;51.728;8.796;2023-05-10T13:17:53;21.10;75.80
3069;DHT22;1545;51.728;8.796;2023-05-10T13:20:18;21.40;75.90
3069;DHT22;1545;51.728;8.796;2023-05-10T13:22:44;21.70;75.90
3069;DHT22;1545;51.728;8.796;2023-05-10T13:25:10;22.00;73.60
3069;DHT22;1545;51.728;8.796;2023-05-10T13:27:36;22.10;74.80
3069;DHT22;1545;51.728;8.796;2023-05-10T13:30:03;22.30;74.10
3069;DHT22;1545;51.728;8.796;2023-05-10T13:32:29;22.30;71.50
3069;DHT22;1545;51.728;8.796;2023-05-10T13:34:55;22.30;69.70
3069;DHT22;1545;51.728;8.796;2023-05-10T13:37:21;22.00;68.70
3069;DHT22;1545;51.728;8.796;2023-05-10T13:39:47;21.70;69.10
3069;DHT22;1545;51.728;8.796;2023-05-10T13:42:13;21.60;71.50
3069;DHT22;1545;51.728;8.796;2023-05-10T13:44:38;21.30;69.80
3069;DHT22;1545;51.728;8.796;2023-05-10T13:47:04;21.20;72.00
3069;DHT22;1545;51.728;8.796;2023-05-10T13:49:30;21.20;72.80
3069;DHT22;1545;51.728;8.796;2023-05-10T13:51:55;21.30;73.20
3069;DHT22;1545;51.728;8.796;2023-05-10T13:54:21;21.10;70.10
3069;DHT22;1545;51.728;8.796;2023-05-10T13:56:47;20.80;72.50
3069;DHT22;1545;51.728;8.796;2023-05-10T13:59:13;21.00;71.50
3069;DHT22;1545;51.728;8.796;2023-05-10T14:01:40;21.00;73.20
3069;DHT22;1545;51.728;8.796;2023-05-10T14:04:05;21.20;73.70
3069;DHT22;1545;51.728;8.796;2023-05-10T14:06:31;21.30;72.60
3069;DHT22;1545;51.728;8.796;2023-05-10T14:08:57;21.10;73.10
3069;DHT22;1545;51.728;8.796;2023-05-10T14:11:22;21.20;73.90
3069;DHT22;1545;51.728;8.796;2023-05-10T14:13:48;21.10;73.70
3069;DHT22;1545;51.728;8.796;2023-05-10T14:16:14;21.00;74.80
3069;DHT22;1545;51.728;8.796;2023-05-10T14:18:40;20.70;75.60
3069;DHT22;1545;51.728;8.796;2023-05-10T14:21:05;20.10;76.50
3069;DHT22;1545;51.728;8.796;2023-05-10T14:23:31;19.00;80.20
3069;DHT22;1545;51.728;8.796;2023-05-10T14:25:57;18.30;81.50
3069;DHT22;1545;51.728;8.796;2023-05-10T14:28:22;17.30;83.00
3069;DHT22;1545;51.728;8.796;2023-05-10T14:30:48;16.80;83.00
3069;DHT22;1545;51.728;8.796;2023-05-10T14:33:14;16.30;83.40
3069;DHT22;1545;51.728;8.796;2023-05-10T14:35:40;15.70;87.30
3069;DHT22;1545;51.728;8.796;2023-05-10T14:38:05;15.50;90.20
3069;DHT22;1545;51.728;8.796;2023-05-10T14:40:31;15.20;93.60
3069;DHT22;1545;51.728;8.796;2023-05-10T14:42:57;15.10;95.40
3069;DHT22;1545;51.728;8.796;2023-05-10T14:45:23;14.90;96.90
3069;DHT22;1545;51.728;8.796;2023-05-10T14:47:49;14.90;98.20
3069;DHT22;1545;51.728;8.796;2023-05-10T14:50:15;14.80;98.10
3069;DHT22;1545;51.728;8.796;2023-05-10T14:52:42;14.80;98.30
3069;DHT22;1545;51.728;8.796;2023-05-10T14:55:08;14.70;97.40
3069;DHT22;1545;51.728;8.796;2023-05-10T14:57:33;14.70;97.60
3069;DHT22;1545;51.728;8.796;2023-05-10T14:59:59;14.70;97.50
3069;DHT22;1545;51.728;8.796;2023-05-10T15:02:24;14.70;98.00
3069;DHT22;1545;51.728;8.796;2023-05-10T15:04:50;14.80;97.60
3069;DHT22;1545;51.728;8.796;2023-05-10T15:07:16;14.70;96.50
3069;DHT22;1545;51.728;8.796;2023-05-10T15:09:44;14.70;96.40
3069;DHT22;1545;51.728;8.796;2023-05-10T15:12:09;14.80;97.70
3069;DHT22;1545;51.728;8.796;2023-05-10T15:14:35;14.90;98.20
3069;DHT22;1545;51.728;8.796;2023-05-10T15:17:01;14.90;98.60
3069;DHT22;1545;51.728;8.796;2023-05-10T15:19:27;15.00;98.80
3069;DHT22;1545;51.728;8.796;2023-05-10T15:21:54;15.10;98.80
3069;DHT22;1545;51.728;8.796;2023-05-10T15:24:20;15.30;98.80
3069;DHT22;1545;51.728;8.796;2023-05-10T15:26:46;15.50;98.80
3069;DHT22;1545;51.728;8.796;2023-05-10T15:29:12;15.70;98.80
3069;DHT22;1545;51.728;8.796;2023-05-10T15:31:37;15.90;98.80
3069;DHT22;1545;51.728;8.796;2023-05-10T15:34:04;16.00;98.10
3069;DHT22;1545;51.728;8.796;2023-05-10T15:36:31;16.10;96.20
3069;DHT22;1545;51.728;8.796;2023-05-10T15:38:57;16.20;95.80
3069;DHT22;1545;51.728;8.796;2023-05-10T15:41:22;16.30;95.40
3069;DHT22;1545;51.728;8.796;2023-05-10T15:43:48;16.40;95.30
3069;DHT22;1545;51.728;8.796;2023-05-10T15:46:14;16.40;94.30
3069;DHT22;1545;51.728;8.796;2023-05-10T15:48:39;16.20;94.00
3069;DHT22;1545;51.728;8.796;2023-05-10T15:51:05;16.10;93.90
3069;DHT22;1545;51.728;8.796;2023-05-10T15:53:30;16.10;94.40
3069;DHT22;1545;51.728;8.796;2023-05-10T15:55:56;16.20;94.90
3069;DHT22;1545;51.728;8.796;2023-05-10T15:58:21;16.20;95.30
3069;DHT22;1545;51.728;8.796;2023-05-10T16:00:47;16.20;95.00
3069;DHT22;1545;51.728;8.796;2023-05-10T16:03:12;16.20;94.40
3069;DHT22;1545;51.728;8.796;2023-05-10T16:05:38;16.20;94.60
3069;DHT22;1545;51.728;8.796;2023-05-10T16:08:04;16.20;94.30
3069;DHT22;1545;51.728;8.796;2023-05-10T16:10:32;16.10;94.20
3069;DHT22;1545;51.728;8.796;2023-05-10T16:12:58;16.10;94.40
3069;DHT22;1545;51.728;8.796;2023-05-10T16:15:23;16.10;93.90
3069;DHT22;1545;51.728;8.796;2023-05-10T16:17:49;16.00;93.60
3069;DHT22;1545;51.728;8.796;2023-05-10T16:20:14;16.00;93.40
3069;DHT22;1545;51.728;8.796;2023-05-10T16:22:40;15.90;93.70
3069;DHT22;1545;51.728;8.796;2023-05-10T16:25:05;15.90;93.50
3069;DHT22;1545;51.728;8.796;2023-05-10T16:27:31;15.80;93.90
3069;DHT22;1545;51.728;8.796;2023-05-10T16:29:58;15.70;93.70
3069;DHT22;1545;51.728;8.796;2023-05-10T16:32:23;15.60;94.70
3069;DHT22;1545;51.728;8.796;2023-05-10T16:34:49;15.50;95.30